sensor_id;sensor_type;location;lat;lon;timestamp;pressure;altitude;pressure_sealevel;temperature;humidity
12073;BME280;6098;49.004;8.372;2023-03-23T00:11:06;99660.19;;;15.66;52.27
12073;BME280;6098;49.004;8.372;2023-03-23T00:26:00;99638.31;;;15.72;51.58
12073;BME280;6098;49.004;8.372;2023-03-23T00:40:51;99624.91;;;15.80;51.09
12073;BME280;6098;49.004;8.372;2023-03-23T00:55:43;99624.28;;;15.88;50.74
12073;BME280;6098;49.004;8.372;2023-03-23T01:10:34;99612.44;;;15.97;50.60
12073;BME280;6098;49.004;8.372;2023-03-23T01:25:27;99591.67;;;16.07;50.34
12073;BME280;6098;49.004;8.372;2023-03-23T01:40:18;99569.59;;;16.16;49.70
12073;BME280;6098;49.004;8.372;2023-03-23T01:55:10;99562.67;;;16.31;49.13
12073;BME280;6098;49.004;8.372;2023-03-23T02:10:02;99535.77;;;16.21;50.60
12073;BME280;6098;49.004;8.372;2023-03-23T02:40:18;99516.62;;;16.21;50.55
12073;BME280;6098;49.004;8.372;2023-03-23T02:55:12;99504.58;;;16.21;51.45
12073;BME280;6098;49.004;8.372;2023-03-23T03:25:20;99502.61;;;16.24;51.92
12073;BME280;6098;49.004;8.372;2023-03-23T03:40:15;99501.02;;;16.27;51.97
12073;BME280;6098;49.004;8.372;2023-03-23T03:55:09;99513.18;;;16.25;52.21
12073;BME280;6098;49.004;8.372;2023-03-23T04:10:00;99513.77;;;16.23;52.70
12073;BME280;6098;49.004;8.372;2023-03-23T04:24:52;99529.98;;;16.21;53.15
12073;BME280;6098;49.004;8.372;2023-03-23T04:39:43;99536.91;;;16.18;53.62
12073;BME280;6098;49.004;8.372;2023-03-23T04:54:35;99566.16;;;16.09;54.30
12073;BME280;6098;49.004;8.372;2023-03-23T05:09:27;99578.75;;;16.01;54.98
12073;BME280;6098;49.004;8.372;2023-03-23T05:24:18;99588.25;;;15.75;58.17
12073;BME280;6098;49.004;8.372;2023-03-23T05:39:09;99589.30;;;15.61;58.28
12073;BME280;6098;49.004;8.372;2023-03-23T05:53:59;99604.97;;;15.47;59.75
12073;BME280;6098;49.004;8.372;2023-03-23T06:08:51;99610.86;;;15.39;60.94
12073;BME280;6098;49.004;8.372;2023-03-23T06:23:42;99615.48;;;15.31;64.74
12073;BME280;6098;49.004;8.372;2023-03-23T06:38:33;99644.94;;;15.17;65.67
12073;BME280;6098;49.004;8.372;2023-03-23T06:53:24;99672.06;;;15.04;65.51
12073;BME280;6098;49.004;8.372;2023-03-23T07:08:15;99706.84;;;14.97;66.23
12073;BME280;6098;49.004;8.372;2023-03-23T07:23:06;99706.77;;;14.91;69.42
12073;BME280;6098;49.004;8.372;2023-03-23T07:37:58;99706.13;;;14.88;71.36
12073;BME280;6098;49.004;8.372;2023-03-23T07:52:50;99711.68;;;14.91;70.59
12073;BME280;6098;49.004;8.372;2023-03-23T08:07:42;99718.99;;;15.20;71.15
12073;BME280;6098;49.004;8.372;2023-03-23T08:22:34;99735.03;;;15.46;67.27
12073;BME280;6098;49.004;8.372;2023-03-23T08:37:26;99734.50;;;15.98;65.53
12073;BME280;6098;49.004;8.372;2023-03-23T08:52:18;99765.47;;;16.32;64.85
12073;BME280;6098;49.004;8.372;2023-03-23T09:07:10;99783.83;;;16.18;64.75
12073;BME280;6098;49.004;8.372;2023-03-23T09:22:00;99809.55;;;16.20;66.68
12073;BME280;6098;49.004;8.372;2023-03-23T09:36:52;99831.38;;;15.89;67.49
12073;BME280;6098;49.004;8.372;2023-03-23T09:51:44;99842.33;;;15.53;69.00
12073;BME280;6098;49.004;8.372;2023-03-23T10:06:33;99839.06;;;15.28;73.79
12073;BME280;6098;49.004;8.372;2023-03-23T10:21:24;99844.48;;;15.20;74.12
12073;BME280;6098;49.004;8.372;2023-03-23T10:51:16;99840.94;;;15.13;75.71
12073;BME280;6098;49.004;8.372;2023-03-23T11:20:58;99866.45;;;15.24;74.58
12073;BME280;6098;49.004;8.372;2023-03-23T11:35:52;99852.04;;;15.47;72.09
12073;BME280;6098;49.004;8.372;2023-03-23T12:06:02;99829.88;;;15.97;66.86
12073;BME280;6098;49.004;8.372;2023-03-23T12:21:25;99807.42;;;16.18;64.75
12073;BME280;6098;49.004;8.372;2023-03-23T12:36:45;99791.14;;;16.21;62.39
12073;BME280;6098;49.004;8.372;2023-03-23T13:06:47;99771.52;;;16.22;60.47
12073;BME280;6098;49.004;8.372;2023-03-23T13:21:46;99759.69;;;16.25;60.64
12073;BME280;6098;49.004;8.372;2023-03-23T13:36:42;99706.52;;;16.81;61.22
12073;BME280;6098;49.004;8.372;2023-03-23T14:06:39;99692.75;;;17.38;60.94
12073;BME280;6098;49.004;8.372;2023-03-23T14:21:32;99692.92;;;17.19;61.01
12073;BME280;6098;49.004;8.372;2023-03-23T14:36:26;99679.28;;;17.27;60.81
12073;BME280;6098;49.004;8.372;2023-03-23T14:51:19;99679.56;;;17.12;60.54
12073;BME280;6098;49.004;8.372;2023-03-23T15:06:14;99680.03;;;17.12;61.21
12073;BME280;6098;49.004;8.372;2023-03-23T15:21:08;99686.90;;;17.10;61.32
12073;BME280;6098;49.004;8.372;2023-03-23T15:36:04;99682.86;;;17.04;61.09
12073;BME280;6098;49.004;8.372;2023-03-23T15:50:52;99670.17;;;17.07;60.90
12073;BME280;6098;49.004;8.372;2023-03-23T16:05:44;99665.67;;;17.07;60.87
12073;BME280;6098;49.004;8.372;2023-03-23T16:20:35;99652.81;;;17.06;61.39
12073;BME280;6098;49.004;8.372;2023-03-23T16:35:26;99632.06;;;17.03;62.18
12073;BME280;6098;49.004;8.372;2023-03-23T16:50:18;99627.01;;;17.00;62.41
12073;BME280;6098;49.004;8.372;2023-03-23T17:05:09;99615.34;;;16.94;63.02
12073;BME280;6098;49.004;8.372;2023-03-23T17:20:01;99605.20;;;16.81;63.14
12073;BME280;6098;49.004;8.372;2023-03-23T17:34:52;99602.63;;;16.69;64.19
12073;BME280;6098;49.004;8.372;2023-03-23T17:49:43;99603.38;;;16.59;63.90
12073;BME280;6098;49.004;8.372;2023-03-23T18:04:34;99604.17;;;16.55;62.90
12073;BME280;6098;49.004;8.372;2023-03-23T18:19:25;99597.09;;;16.54;61.13
12073;BME280;6098;49.004;8.372;2023-03-23T18:34:16;99603.86;;;16.53;58.87
12073;BME280;6098;49.004;8.372;2023-03-23T18:49:07;99607.66;;;16.50;57.82
12073;BME280;6098;49.004;8.372;2023-03-23T19:03:58;99605.28;;;16.51;56.97
12073;BME280;6098;49.004;8.372;2023-03-23T19:18:50;99600.94;;;16.56;56.42
12073;BME280;6098;49.004;8.372;2023-03-23T19:33:41;99601.44;;;16.61;56.04
12073;BME280;6098;49.004;8.372;2023-03-23T19:48:35;99582.52;;;16.58;55.91
12073;BME280;6098;49.004;8.372;2023-03-23T20:03:25;99581.61;;;16.58;55.94
12073;BME280;6098;49.004;8.372;2023-03-23T20:18:16;99564.66;;;16.58;55.58
12073;BME280;6098;49.004;8.372;2023-03-23T20:33:10;99564.66;;;16.58;55.52
12073;BME280;6098;49.004;8.372;2023-03-23T20:48:01;99562.45;;;16.58;55.38
12073;BME280;6098;49.004;8.372;2023-03-23T21:02:52;99546.69;;;16.54;55.34
12073;BME280;6098;49.004;8.372;2023-03-23T21:17:44;99535.53;;;16.42;56.25
12073;BME280;6098;49.004;8.372;2023-03-23T21:32:35;99520.75;;;16.32;57.82
12073;BME280;6098;49.004;8.372;2023-03-23T21:47:28;99501.98;;;16.20;60.56
12073;BME280;6098;49.004;8.372;2023-03-23T22:02:26;99486.69;;;16.11;61.50
12073;BME280;6098;49.004;8.372;2023-03-23T22:17:18;99472.44;;;16.05;61.87
12073;BME280;6098;49.004;8.372;2023-03-23T22:32:09;99459.98;;;16.04;59.09
12073;BME280;6098;49.004;8.372;2023-03-23T22:47:01;99464.81;;;15.94;63.83
12073;BME280;6098;49.004;8.372;2023-03-23T23:01:51;99449.89;;;15.73;67.77
12073;BME280;6098;49.004;8.372;2023-03-23T23:16:42;99450.85;;;15.49;72.58
12073;BME280;6098;49.004;8.372;2023-03-23T23:31:33;99409.45;;;15.30;75.80
12073;BME280;6098;49.004;8.372;2023-03-23T23:46:24;99399.58;;;15.14;81.20
